Time;durP1;ratioP1;P1;durP2;ratioP2;P2;SDS_P1;SDS_P2;PMS_P1;PMS_P2;Temp;Humidity;BMP_temperature;BMP_pressure;BME280_temperature;BME280_humidity;BME280_pressure;Samples;Min_cycle;Max_cycle;Signal;HPM_P1;HPM_P2
2024/02/26 00:02:10;;;;;;;2.22;1.70;;;5.90;99.90;;;;;;4992176;28;20585;-75
2024/02/26 00:04:37;;;;;;;1.73;1.50;;;5.90;99.90;;;;;;4993525;28;20230;-74
2024/02/26 00:07:05;;;;;;;2.00;1.80;;;5.90;99.90;;;;;;4996574;28;20211;-75
2024/02/26 00:09:32;;;;;;;1.70;1.50;;;5.90;99.90;;;;;;4999597;28;20210;-74
2024/02/26 00:11:59;;;;;;;2.25;1.45;;;5.90;99.90;;;;;;4993084;28;20227;-75
2024/02/26 00:14:26;;;;;;;1.85;1.38;;;5.90;99.90;;;;;;4998661;28;20224;-75
2024/02/26 00:16:52;;;;;;;2.33;1.60;;;5.90;99.90;;;;;;4999261;28;20203;-74
2024/02/26 00:19:19;;;;;;;3.13;1.92;;;5.90;99.90;;;;;;4995920;28;20207;-72
2024/02/26 00:21:46;;;;;;;1.50;1.40;;;5.90;99.90;;;;;;5002174;28;20206;-73
2024/02/26 00:24:14;;;;;;;2.25;1.90;;;5.90;99.90;;;;;;5001915;28;20233;-74
2024/02/26 00:26:41;;;;;;;1.65;1.42;;;5.80;99.90;;;;;;4998885;28;20214;-73
2024/02/26 00:29:08;;;;;;;1.85;1.40;;;5.80;99.90;;;;;;4995775;28;20222;-72
2024/02/26 00:31:34;;;;;;;2.25;1.55;;;5.70;99.90;;;;;;5004142;28;20249;-73
2024/02/26 00:34:01;;;;;;;1.77;1.40;;;5.70;99.90;;;;;;4996284;28;20227;-74
2024/02/26 00:36:28;;;;;;;1.42;1.33;;;5.70;99.90;;;;;;4999385;28;20700;-73
2024/02/26 00:38:55;;;;;;;1.92;1.67;;;5.70;99.90;;;;;;5000523;28;20211;-73
2024/02/26 00:41:23;;;;;;;2.35;2.10;;;5.70;99.90;;;;;;5002625;28;20656;-74
2024/02/26 00:43:50;;;;;;;2.90;1.95;;;5.80;99.90;;;;;;5002172;28;20230;-74
2024/02/26 00:46:16;;;;;;;1.77;1.63;;;5.80;99.90;;;;;;5002330;28;20297;-73
2024/02/26 00:48:43;;;;;;;3.22;1.95;;;5.80;99.90;;;;;;5002900;28;20210;-73
2024/02/26 00:51:10;;;;;;;1.92;1.45;;;5.80;99.90;;;;;;4997334;28;20215;-73
2024/02/26 00:53:36;;;;;;;2.30;1.75;;;5.80;99.90;;;;;;5004353;28;20229;-74
2024/02/26 00:56:03;;;;;;;1.17;1.08;;;5.80;99.90;;;;;;4993794;28;20223;-74
2024/02/26 00:58:32;;;;;;;3.00;1.75;;;5.80;99.90;;;;;;4999249;28;20212;-74
2024/02/26 01:00:59;;;;;;;2.05;1.40;;;5.80;99.90;;;;;;5001670;28;20576;-74
2024/02/26 01:03:25;;;;;;;2.45;1.67;;;5.80;99.90;;;;;;5003201;28;20250;-74
2024/02/26 01:05:52;;;;;;;1.85;1.20;;;5.80;99.90;;;;;;5000600;28;20222;-73
2024/02/26 01:08:19;;;;;;;1.30;1.20;;;5.80;99.90;;;;;;5000553;28;20200;-73
2024/02/26 01:10:45;;;;;;;1.80;1.40;;;5.90;99.90;;;;;;5003498;28;20222;-74
2024/02/26 01:13:12;;;;;;;2.72;1.50;;;5.80;99.90;;;;;;5001433;28;20206;-74
2024/02/26 01:15:40;;;;;;;1.58;1.42;;;5.80;99.90;;;;;;5000796;28;20293;-74
2024/02/26 01:18:07;;;;;;;2.45;1.60;;;5.80;99.90;;;;;;4996696;28;20203;-74
2024/02/26 01:20:34;;;;;;;1.52;1.42;;;5.80;99.90;;;;;;4995486;28;20209;-74
2024/02/26 01:23:00;;;;;;;2.15;1.42;;;5.80;99.90;;;;;;4999085;28;20683;-73
2024/02/26 01:25:27;;;;;;;1.40;1.30;;;5.90;99.90;;;;;;5000252;28;20222;-74
2024/02/26 01:27:54;;;;;;;1.55;1.45;;;5.90;99.90;;;;;;5002077;28;20213;-73
2024/02/26 01:30:20;;;;;;;1.45;1.30;;;5.90;99.90;;;;;;4996272;28;20211;-74
2024/02/26 01:32:48;;;;;;;4.93;1.70;;;5.90;99.90;;;;;;5003693;28;20214;-73
2024/02/26 01:35:15;;;;;;;1.92;1.80;;;5.80;99.90;;;;;;5002038;28;20227;-73
2024/02/26 01:37:42;;;;;;;1.95;1.75;;;5.80;99.90;;;;;;5004704;28;20601;-74
2024/02/26 01:40:10;;;;;;;1.42;1.33;;;5.80;99.90;;;;;;5001232;28;20677;-74
2024/02/26 01:42:41;;;;;;;2.08;1.65;;;5.70;99.90;;;;;;5004698;28;20203;-74
2024/02/26 01:45:15;;;;;;;3.35;1.58;;;5.80;99.90;;;;;;4998135;28;20227;-72
2024/02/26 01:47:43;;;;;;;2.42;1.80;;;5.80;99.90;;;;;;5001836;28;20223;-74
2024/02/26 01:50:11;;;;;;;1.70;1.60;;;5.80;99.90;;;;;;4992280;28;20291;-74
2024/02/26 01:52:38;;;;;;;2.13;1.30;;;5.80;99.90;;;;;;5001915;28;20225;-74
2024/02/26 01:55:06;;;;;;;1.40;1.30;;;5.80;99.90;;;;;;5001596;28;21990;-74
2024/02/26 01:57:33;;;;;;;1.35;1.25;;;5.80;99.90;;;;;;4989223;28;20312;-74
2024/02/26 02:00:00;;;;;;;1.50;1.25;;;5.80;99.90;;;;;;4997588;28;20217;-74
2024/02/26 02:02:27;;;;;;;1.30;1.20;;;5.90;99.90;;;;;;5000622;28;20209;-73
2024/02/26 02:04:54;;;;;;;1.30;1.20;;;6.00;99.90;;;;;;4995011;28;20227;-73
2024/02/26 02:07:23;;;;;;;1.50;1.40;;;6.10;99.90;;;;;;5001223;28;20213;-74
2024/02/26 02:09:50;;;;;;;1.95;0.90;;;6.20;99.90;;;;;;5004354;28;20206;-73
2024/02/26 02:12:17;;;;;;;1.15;1.05;;;6.30;99.90;;;;;;5000585;28;20219;-74
2024/02/26 02:14:44;;;;;;;1.25;1.13;;;6.50;99.90;;;;;;5005646;28;20233;-74
2024/02/26 02:17:11;;;;;;;1.40;1.08;;;6.60;99.90;;;;;;4994600;28;20223;-74
2024/02/26 02:19:38;;;;;;;1.13;1.02;;;6.70;99.90;;;;;;4999961;28;20297;-75
2024/02/26 02:22:06;;;;;;;1.45;1.10;;;6.80;99.90;;;;;;5000774;28;20209;-74
2024/02/26 02:24:33;;;;;;;1.40;1.08;;;6.90;99.90;;;;;;4995258;28;20240;-74
2024/02/26 02:27:00;;;;;;;1.20;1.10;;;6.90;99.90;;;;;;5004564;28;20207;-73
2024/02/26 02:29:27;;;;;;;1.25;1.05;;;6.90;99.90;;;;;;5005029;28;20208;-74
2024/02/26 02:31:54;;;;;;;1.10;1.00;;;6.90;99.90;;;;;;5009786;28;20360;-74
2024/02/26 02:34:22;;;;;;;1.10;1.00;;;6.90;99.90;;;;;;4999669;28;20230;-74
2024/02/26 02:36:53;;;;;;;2.40;1.50;;;6.90;99.90;;;;;;5010122;28;20207;-74
2024/02/26 02:39:22;;;;;;;1.65;1.00;;;6.80;99.90;;;;;;5003166;28;20239;-74
2024/02/26 02:41:48;;;;;;;1.27;1.10;;;6.80;99.90;;;;;;5007869;28;20210;-74
2024/02/26 02:44:15;;;;;;;1.20;1.02;;;6.70;99.90;;;;;;5002883;28;20712;-74
2024/02/26 02:46:42;;;;;;;1.15;0.88;;;6.60;99.90;;;;;;5007790;28;20209;-74
2024/02/26 02:49:10;;;;;;;1.50;0.90;;;6.60;99.90;;;;;;5000126;28;20206;-74
2024/02/26 02:51:36;;;;;;;1.35;1.10;;;6.60;99.90;;;;;;5009996;28;20296;-74
2024/02/26 02:54:03;;;;;;;1.27;1.08;;;6.60;99.90;;;;;;5005848;28;20245;-74
2024/02/26 02:56:31;;;;;;;1.85;1.13;;;6.60;99.90;;;;;;5007674;28;20203;-74
2024/02/26 02:58:58;;;;;;;1.02;0.93;;;6.70;99.90;;;;;;5008375;28;20220;-74
2024/02/26 03:01:25;;;;;;;1.20;0.95;;;6.80;99.90;;;;;;5009180;28;20207;-74
2024/02/26 03:03:51;;;;;;;0.90;0.80;;;6.80;99.90;;;;;;5010170;28;20222;-74
2024/02/26 03:06:18;;;;;;;1.10;0.95;;;6.90;99.90;;;;;;5006162;28;20580;-74
2024/02/26 03:08:45;;;;;;;1.95;0.88;;;6.90;99.90;;;;;;5005750;28;20218;-74
2024/02/26 03:11:14;;;;;;;0.80;0.70;;;6.90;99.90;;;;;;5007621;28;20224;-74
2024/02/26 03:13:43;;;;;;;1.00;0.80;;;6.80;99.90;;;;;;5008261;28;20315;-74
2024/02/26 03:16:10;;;;;;;1.23;0.80;;;6.80;99.90;;;;;;5004152;28;20207;-74
2024/02/26 03:18:36;;;;;;;1.30;1.10;;;6.80;99.90;;;;;;5007918;28;20206;-74
2024/02/26 03:21:03;;;;;;;0.90;0.80;;;6.80;99.90;;;;;;5008703;28;20218;-74
2024/02/26 03:23:31;;;;;;;1.15;1.05;;;6.80;99.90;;;;;;5006198;28;20222;-74
2024/02/26 03:25:58;;;;;;;1.20;1.00;;;6.90;99.90;;;;;;5007844;28;20236;-74
2024/02/26 03:28:25;;;;;;;1.00;0.85;;;7.10;99.90;;;;;;5007037;28;20203;-73
2024/02/26 03:30:53;;;;;;;0.90;0.80;;;7.20;99.90;;;;;;5008630;28;20585;-74
2024/02/26 03:33:20;;;;;;;1.08;0.80;;;7.30;99.90;;;;;;5006749;28;20227;-74
2024/02/26 03:35:46;;;;;;;0.90;0.73;;;7.40;99.90;;;;;;5007190;28;20214;-74
2024/02/26 03:38:13;;;;;;;0.85;0.80;;;7.40;99.90;;;;;;5006245;28;20690;-74
2024/02/26 03:40:40;;;;;;;0.80;0.70;;;7.40;99.90;;;;;;5010760;28;20203;-73
2024/02/26 03:43:07;;;;;;;1.25;0.90;;;7.40;99.90;;;;;;5004893;28;20206;-74
2024/02/26 03:45:34;;;;;;;1.52;1.00;;;7.40;99.90;;;;;;4996320;28;20212;-74
2024/02/26 03:48:02;;;;;;;1.10;0.80;;;7.40;99.90;;;;;;5007434;28;20289;-74
2024/02/26 03:50:28;;;;;;;1.02;0.90;;;7.40;99.90;;;;;;5006234;28;20210;-74
2024/02/26 03:52:57;;;;;;;1.20;0.90;;;7.30;99.90;;;;;;5007619;28;20222;-74
2024/02/26 03:55:24;;;;;;;1.27;1.00;;;7.30;99.90;;;;;;5005374;28;20290;-74
2024/02/26 03:57:51;;;;;;;0.90;0.80;;;7.20;99.90;;;;;;5009196;28;20672;-74
2024/02/26 04:00:19;;;;;;;1.00;0.80;;;7.10;99.90;;;;;;5005995;28;20740;-74
2024/02/26 04:02:45;;;;;;;1.58;1.02;;;7.00;99.90;;;;;;5008372;28;20213;-73
2024/02/26 04:05:14;;;;;;;1.65;0.90;;;7.00;99.90;;;;;;5007609;28;20305;-74
2024/02/26 04:07:41;;;;;;;1.10;1.00;;;7.00;99.90;;;;;;5010574;28;20620;-74
2024/02/26 04:10:10;;;;;;;1.10;1.00;;;6.90;99.90;;;;;;5007598;28;20211;-74
2024/02/26 04:12:39;;;;;;;1.00;0.90;;;6.90;99.90;;;;;;5010710;28;20226;-74
2024/02/26 04:15:07;;;;;;;1.05;0.95;;;6.80;99.90;;;;;;5008194;28;20233;-74
2024/02/26 04:17:34;;;;;;;0.93;0.82;;;6.80;99.90;;;;;;4997244;28;20214;-74
2024/02/26 04:20:00;;;;;;;1.10;1.00;;;6.80;99.90;;;;;;5009899;28;20458;-74
2024/02/26 04:22:29;;;;;;;0.95;0.82;;;6.70;99.90;;;;;;5008879;28;20204;-74
2024/02/26 04:24:55;;;;;;;1.00;0.90;;;6.70;99.90;;;;;;5009882;28;20237;-74
2024/02/26 04:27:22;;;;;;;1.40;1.30;;;6.60;99.90;;;;;;5009449;28;20230;-74
2024/02/26 04:29:49;;;;;;;1.00;0.90;;;6.60;99.90;;;;;;5010377;28;20217;-74
2024/02/26 04:32:15;;;;;;;1.65;1.25;;;6.50;99.90;;;;;;5009840;28;20226;-73
2024/02/26 04:34:43;;;;;;;1.77;1.50;;;6.40;99.90;;;;;;5010313;28;20227;-73
2024/02/26 04:37:09;;;;;;;2.20;1.67;;;6.40;99.90;;;;;;5002464;28;20691;-73
2024/02/26 04:39:37;;;;;;;1.40;1.13;;;6.30;99.90;;;;;;5010470;28;20301;-73
2024/02/26 04:42:04;;;;;;;1.50;1.40;;;6.30;99.90;;;;;;5009573;28;20210;-74
2024/02/26 04:44:31;;;;;;;1.17;1.08;;;6.30;99.90;;;;;;5010291;28;20223;-74
2024/02/26 04:46:58;;;;;;;1.30;1.20;;;6.20;99.90;;;;;;5011088;28;20211;-74
2024/02/26 04:49:25;;;;;;;1.75;1.50;;;6.20;99.90;;;;;;5008697;28;20214;-74
2024/02/26 04:51:51;;;;;;;1.95;1.60;;;6.30;99.90;;;;;;5010618;28;20229;-73
2024/02/26 04:54:18;;;;;;;2.45;1.80;;;6.20;99.90;;;;;;5007805;28;20745;-74
2024/02/26 04:56:46;;;;;;;1.58;1.35;;;6.20;99.90;;;;;;5010708;28;20214;-74
2024/02/26 04:59:13;;;;;;;1.30;1.20;;;6.30;99.90;;;;;;5009675;28;20206;-74
2024/02/26 05:01:41;;;;;;;1.77;1.30;;;6.30;99.90;;;;;;5010769;28;20811;-74
2024/02/26 05:04:08;;;;;;;2.03;1.48;;;6.20;99.90;;;;;;5009738;28;20227;-72
2024/02/26 05:06:34;;;;;;;1.75;1.55;;;6.20;99.90;;;;;;5010868;28;20298;-74
2024/02/26 05:09:01;;;;;;;1.85;1.63;;;6.30;99.90;;;;;;5010893;28;20202;-74
2024/02/26 05:11:28;;;;;;;1.95;1.42;;;6.30;99.90;;;;;;5004389;28;20209;-75
2024/02/26 05:13:56;;;;;;;2.00;1.80;;;6.30;99.90;;;;;;5011296;28;20241;-73
2024/02/26 05:16:24;;;;;;;1.30;1.20;;;6.30;99.90;;;;;;5010607;28;20601;-72
2024/02/26 05:18:51;;;;;;;1.65;1.55;;;6.30;99.90;;;;;;5010568;28;20235;-71
2024/02/26 05:21:18;;;;;;;1.30;1.13;;;6.40;99.90;;;;;;5010395;28;20588;-72
2024/02/26 05:23:45;;;;;;;1.52;1.42;;;6.40;99.90;;;;;;5011231;28;20750;-72
2024/02/26 05:26:11;;;;;;;1.98;1.40;;;6.40;99.90;;;;;;5010708;28;20206;-72
2024/02/26 05:28:39;;;;;;;1.60;1.50;;;6.40;99.90;;;;;;5010421;28;20214;-72
2024/02/26 05:31:07;;;;;;;2.03;1.65;;;6.40;99.90;;;;;;5012086;28;20260;-72
2024/02/26 05:33:34;;;;;;;2.53;1.95;;;6.50;99.90;;;;;;5011461;28;20226;-72
2024/02/26 05:36:03;;;;;;;2.17;1.38;;;6.40;99.90;;;;;;5012051;28;20308;-72
2024/02/26 05:38:31;;;;;;;1.40;1.20;;;6.40;99.90;;;;;;5010703;28;20229;-72
2024/02/26 05:40:58;;;;;;;1.73;1.63;;;6.40;99.90;;;;;;5011380;28;20264;-72
2024/02/26 05:43:25;;;;;;;2.00;1.35;;;6.40;99.90;;;;;;4992133;28;20231;-72
2024/02/26 05:45:52;;;;;;;2.00;1.40;;;6.40;99.90;;;;;;4986021;28;20204;-72
2024/02/26 05:48:20;;;;;;;1.50;1.40;;;6.40;99.90;;;;;;4989103;28;20210;-72
2024/02/26 05:50:47;;;;;;;2.30;1.48;;;6.40;99.90;;;;;;4991783;28;20214;-72
2024/02/26 05:53:13;;;;;;;3.05;1.35;;;6.40;99.90;;;;;;4991725;28;20234;-75
2024/02/26 05:55:40;;;;;;;1.33;1.17;;;6.30;99.90;;;;;;4984009;28;20592;-72
2024/02/26 05:58:07;;;;;;;1.52;1.42;;;6.20;99.90;;;;;;4983458;28;20235;-72
2024/02/26 06:00:34;;;;;;;1.30;1.20;;;6.20;99.90;;;;;;4994820;28;20219;-72
2024/02/26 06:03:02;;;;;;;1.75;1.55;;;6.20;99.90;;;;;;4995996;28;20206;-72
2024/02/26 06:05:30;;;;;;;2.70;1.90;;;6.10;99.90;;;;;;4983704;28;20574;-72
2024/02/26 06:07:56;;;;;;;1.63;1.40;;;6.10;99.90;;;;;;4978081;28;20444;-73
2024/02/26 06:10:23;;;;;;;3.30;1.60;;;6.00;99.90;;;;;;4990282;28;20227;-71
2024/02/26 06:12:50;;;;;;;2.72;1.80;;;5.90;99.90;;;;;;4997465;28;20226;-72
2024/02/26 06:15:17;;;;;;;1.80;1.23;;;5.90;99.90;;;;;;4986314;28;20227;-72
2024/02/26 06:17:43;;;;;;;1.60;1.30;;;5.90;99.90;;;;;;4991808;28;20215;-72
2024/02/26 06:20:12;;;;;;;2.38;1.77;;;5.90;99.90;;;;;;4984595;28;20206;-72
2024/02/26 06:22:41;;;;;;;1.90;1.20;;;5.80;99.90;;;;;;4992360;28;20233;-72
2024/02/26 06:25:08;;;;;;;1.30;1.20;;;5.80;99.90;;;;;;4991896;28;20234;-71
2024/02/26 06:27:35;;;;;;;1.38;1.20;;;5.70;99.90;;;;;;4977091;28;20210;-72
2024/02/26 06:30:02;;;;;;;1.73;1.30;;;5.60;99.90;;;;;;4985677;28;20204;-71
2024/02/26 06:32:29;;;;;;;1.65;1.33;;;5.60;99.90;;;;;;4989172;28;20309;-72
2024/02/26 06:34:56;;;;;;;1.10;1.00;;;5.60;99.90;;;;;;4987657;28;20285;-72
2024/02/26 06:37:23;;;;;;;2.53;1.75;;;5.60;99.90;;;;;;4978330;28;20200;-71
2024/02/26 06:39:52;;;;;;;2.38;1.70;;;5.60;99.90;;;;;;4992349;28;20250;-71
2024/02/26 06:42:19;;;;;;;1.27;1.13;;;5.50;99.90;;;;;;4985877;28;20211;-71
2024/02/26 06:44:45;;;;;;;1.80;1.45;;;5.40;99.90;;;;;;4988128;28;20231;-71
2024/02/26 06:47:12;;;;;;;1.15;1.05;;;5.40;99.90;;;;;;4983280;28;20219;-71
2024/02/26 06:49:39;;;;;;;2.25;1.27;;;5.40;99.90;;;;;;4988204;28;20209;-73
2024/02/26 06:52:06;;;;;;;1.85;1.65;;;5.50;99.90;;;;;;4995495;28;20213;-71
2024/02/26 06:54:33;;;;;;;3.50;1.45;;;5.50;99.90;;;;;;4991719;28;20230;-73
2024/02/26 06:57:01;;;;;;;1.10;1.00;;;5.50;99.90;;;;;;4993085;28;20207;-74
2024/02/26 06:59:28;;;;;;;1.55;1.45;;;5.60;99.90;;;;;;4993044;28;20277;-72
2024/02/26 07:01:57;;;;;;;2.92;2.03;;;5.60;99.90;;;;;;4999214;28;20707;-72
2024/02/26 07:04:24;;;;;;;2.60;1.80;;;5.70;99.90;;;;;;4993654;28;20223;-71
2024/02/26 07:06:51;;;;;;;1.75;1.65;;;5.80;99.90;;;;;;4993498;28;20217;-74
2024/02/26 07:09:18;;;;;;;1.50;1.40;;;5.80;99.90;;;;;;4993509;28;20200;-73
2024/02/26 07:11:44;;;;;;;1.80;1.50;;;5.90;99.90;;;;;;4993344;28;20207;-74
2024/02/26 07:14:13;;;;;;;2.88;1.55;;;5.90;99.90;;;;;;5006423;28;20219;-74
2024/02/26 07:16:40;;;;;;;1.35;1.17;;;6.00;99.90;;;;;;4983848;28;20296;-74
2024/02/26 07:19:07;;;;;;;2.50;1.50;;;6.00;99.90;;;;;;4999725;28;20206;-74
2024/02/26 07:21:34;;;;;;;4.03;1.50;;;6.00;99.90;;;;;;5003485;28;20672;-74
2024/02/26 07:24:00;;;;;;;1.88;1.38;;;6.00;99.90;;;;;;4990262;28;20223;-73
2024/02/26 07:26:29;;;;;;;1.88;1.60;;;6.00;99.90;;;;;;4997943;28;20266;-70
2024/02/26 07:28:56;;;;;;;1.70;1.30;;;6.00;99.90;;;;;;4991377;28;20271;-72
2024/02/26 07:31:24;;;;;;;2.17;1.30;;;6.20;99.90;;;;;;4990774;28;20215;-74
2024/02/26 07:33:51;;;;;;;1.33;1.23;;;6.20;99.90;;;;;;4993732;28;20219;-73
2024/02/26 07:36:18;;;;;;;2.58;1.70;;;6.20;99.90;;;;;;4991787;28;20203;-74
2024/02/26 07:38:44;;;;;;;1.60;1.10;;;6.30;99.90;;;;;;4993277;28;20215;-74
2024/02/26 07:41:12;;;;;;;1.70;1.60;;;6.30;99.90;;;;;;5000777;28;20210;-73
2024/02/26 07:43:39;;;;;;;1.30;1.17;;;6.40;99.90;;;;;;4983722;28;20601;-74
2024/02/26 07:46:05;;;;;;;1.30;1.20;;;6.40;99.90;;;;;;5008229;28;20211;-74
2024/02/26 07:48:33;;;;;;;1.23;0.95;;;6.50;99.90;;;;;;4996386;28;20202;-74
2024/02/26 07:51:03;;;;;;;1.17;1.05;;;6.50;99.90;;;;;;4992003;28;20208;-74
2024/02/26 07:53:29;;;;;;;1.17;1.08;;;6.50;99.90;;;;;;5002829;28;20222;-74
2024/02/26 07:55:56;;;;;;;1.73;1.30;;;6.60;99.90;;;;;;4986300;28;20214;-74
2024/02/26 07:58:24;;;;;;;1.30;1.20;;;6.70;99.90;;;;;;4995251;28;20291;-74
2024/02/26 08:00:51;;;;;;;1.40;1.30;;;6.80;99.90;;;;;;4997187;28;20279;-74
2024/02/26 08:03:17;;;;;;;1.10;1.00;;;6.90;99.90;;;;;;4998201;28;20704;-74
2024/02/26 08:05:46;;;;;;;2.00;1.50;;;7.00;99.90;;;;;;4990572;28;20211;-74
2024/02/26 08:08:12;;;;;;;1.67;1.50;;;7.10;99.90;;;;;;4996907;28;20203;-74
2024/02/26 08:10:39;;;;;;;2.25;1.88;;;7.20;99.90;;;;;;4997882;28;20210;-74
2024/02/26 08:13:06;;;;;;;3.60;1.73;;;7.30;99.90;;;;;;4997144;28;20227;-74
2024/02/26 08:15:32;;;;;;;1.60;1.50;;;7.40;99.90;;;;;;4998842;28;20676;-74
2024/02/26 08:18:00;;;;;;;3.35;1.70;;;7.40;99.90;;;;;;4986354;28;20200;-74
2024/02/26 08:20:27;;;;;;;2.50;2.10;;;7.50;99.90;;;;;;4997515;28;20594;-74
2024/02/26 08:22:55;;;;;;;1.83;1.67;;;7.40;99.90;;;;;;4992067;28;20207;-74
2024/02/26 08:25:21;;;;;;;1.73;1.63;;;7.50;99.90;;;;;;4993106;28;20207;-74
2024/02/26 08:27:48;;;;;;;2.35;2.15;;;7.50;99.90;;;;;;4997041;28;20203;-74
2024/02/26 08:30:16;;;;;;;1.60;1.50;;;7.60;99.90;;;;;;4992127;28;20204;-74
2024/02/26 08:32:44;;;;;;;2.15;1.95;;;7.70;99.90;;;;;;4991897;28;20215;-74
2024/02/26 08:35:10;;;;;;;2.22;2.03;;;7.60;99.90;;;;;;5003367;28;20227;-74
2024/02/26 08:37:37;;;;;;;3.10;1.65;;;7.70;99.90;;;;;;4996974;28;20641;-74
2024/02/26 08:40:07;;;;;;;8.13;1.95;;;7.80;99.90;;;;;;4997197;28;20214;-74
2024/02/26 08:42:33;;;;;;;1.80;1.70;;;7.80;99.90;;;;;;4989176;28;20202;-74
2024/02/26 08:45:01;;;;;;;1.75;1.65;;;7.90;99.90;;;;;;4997840;28;20230;-74
2024/02/26 08:47:28;;;;;;;3.17;1.70;;;7.90;99.90;;;;;;4999584;28;20207;-74
2024/02/26 08:49:54;;;;;;;2.10;1.90;;;8.00;99.90;;;;;;4997282;28;20204;-74
2024/02/26 08:52:21;;;;;;;1.83;1.70;;;8.10;99.90;;;;;;5001718;28;20212;-74
2024/02/26 08:54:48;;;;;;;3.30;2.10;;;8.10;99.90;;;;;;4983923;28;20247;-74
2024/02/26 08:57:16;;;;;;;1.98;1.60;;;8.10;99.90;;;;;;4991017;28;20270;-75
2024/02/26 08:59:43;;;;;;;2.35;1.80;;;8.10;99.90;;;;;;4997931;28;20209;-74
2024/02/26 09:02:10;;;;;;;4.75;1.88;;;8.10;99.90;;;;;;4986850;28;20388;-74
2024/02/26 09:04:36;;;;;;;2.35;1.55;;;8.20;99.90;;;;;;4993966;28;20238;-74
2024/02/26 09:07:04;;;;;;;2.30;1.50;;;8.20;99.90;;;;;;4997791;28;20208;-74
2024/02/26 09:09:30;;;;;;;2.05;1.33;;;8.40;99.90;;;;;;4994040;28;20206;-73
2024/02/26 09:11:57;;;;;;;1.85;1.63;;;8.50;99.90;;;;;;4997676;28;20204;-74
2024/02/26 09:14:25;;;;;;;1.77;1.60;;;8.70;99.90;;;;;;4999761;28;20588;-74
2024/02/26 09:16:52;;;;;;;1.65;1.50;;;8.70;99.90;;;;;;4994468;28;20579;-74
2024/02/26 09:19:19;;;;;;;2.60;1.90;;;8.90;99.90;;;;;;4996596;28;20260;-74
2024/02/26 09:21:46;;;;;;;2.60;1.60;;;9.00;99.90;;;;;;4993440;28;20565;-74
2024/02/26 09:24:13;;;;;;;2.05;1.63;;;9.10;99.90;;;;;;4993009;28;20225;-74
2024/02/26 09:26:39;;;;;;;1.73;1.55;;;9.10;99.90;;;;;;4999488;28;20664;-74
2024/02/26 09:29:08;;;;;;;1.73;1.50;;;9.20;99.90;;;;;;4997449;28;20230;-74
2024/02/26 09:31:36;;;;;;;2.58;1.83;;;9.20;99.90;;;;;;4989394;28;20669;-73
2024/02/26 09:34:02;;;;;;;1.92;1.40;;;9.20;99.90;;;;;;4989477;28;20233;-74
2024/02/26 09:36:29;;;;;;;1.65;1.55;;;9.20;99.90;;;;;;5002313;28;20589;-73
2024/02/26 09:38:56;;;;;;;2.75;1.65;;;9.20;99.90;;;;;;4988767;28;20218;-74
2024/02/26 09:41:22;;;;;;;2.22;1.80;;;9.20;99.90;;;;;;4993362;28;20207;-74
2024/02/26 09:43:51;;;;;;;2.15;1.95;;;9.30;99.90;;;;;;4993572;28;20229;-74
2024/02/26 09:46:20;;;;;;;1.63;1.52;;;9.40;99.90;;;;;;4994398;28;20706;-74
2024/02/26 09:48:48;;;;;;;3.20;1.55;;;9.60;99.90;;;;;;4993672;28;20811;-74
2024/02/26 09:51:18;;;;;;;2.67;1.90;;;9.90;99.90;;;;;;4989278;28;20207;-74
2024/02/26 09:53:45;;;;;;;1.70;1.60;;;10.30;99.90;;;;;;4999360;28;20256;-74
2024/02/26 09:56:12;;;;;;;1.50;1.40;;;10.80;99.90;;;;;;4993744;28;20207;-73
2024/02/26 09:58:40;;;;;;;1.45;1.35;;;11.40;99.90;;;;;;4999934;28;20217;-74
2024/02/26 10:01:12;;;;;;;2.08;1.45;;;11.80;99.90;;;;;;4993652;28;20236;-73
2024/02/26 10:03:41;;;;;;;3.10;1.42;;;12.40;99.90;;;;;;4995483;28;20705;-73
2024/02/26 10:06:09;;;;;;;1.60;1.50;;;12.90;99.90;;;;;;4993644;28;20239;-73
2024/02/26 10:08:37;;;;;;;2.50;1.80;;;13.40;99.90;;;;;;4997603;28;20615;-74
2024/02/26 10:11:06;;;;;;;2.97;1.87;;;13.50;99.90;;;;;;4998228;28;20517;-74
2024/02/26 10:13:32;;;;;;;1.60;1.50;;;13.60;99.90;;;;;;5001333;28;20525;-74
2024/02/26 10:15:59;;;;;;;1.73;1.47;;;13.70;99.90;;;;;;4999704;28;20464;-74
2024/02/26 10:18:26;;;;;;;1.70;1.20;;;13.70;99.90;;;;;;5001634;28;20484;-74
2024/02/26 10:21:02;;;;;;;2.57;1.70;;;13.90;99.90;;;;;;4994654;28;20466;-74
2024/02/26 10:23:30;;;;;;;1.27;1.17;;;13.90;99.90;;;;;;4998423;28;21053;-74
2024/02/26 10:25:57;;;;;;;1.93;1.70;;;13.70;99.50;;;;;;4993830;28;20467;-74
2024/02/26 10:28:24;;;;;;;1.50;1.30;;;13.70;98.50;;;;;;4995879;28;20465;-74
2024/02/26 10:30:53;;;;;;;1.40;1.30;;;13.60;99.00;;;;;;4995518;28;20461;-73
2024/02/26 10:33:20;;;;;;;3.03;1.90;;;13.50;99.50;;;;;;5000299;28;20486;-74
2024/02/26 10:35:47;;;;;;;2.33;1.90;;;13.50;99.90;;;;;;4996019;28;20470;-74
2024/02/26 10:38:16;;;;;;;2.90;2.30;;;13.30;99.90;;;;;;4999167;28;20813;-74
2024/02/26 10:40:45;;;;;;;2.27;2.00;;;12.90;99.90;;;;;;4996727;28;20951;-74
2024/02/26 10:43:12;;;;;;;2.40;2.20;;;12.70;99.90;;;;;;4999375;28;20554;-74
2024/02/26 10:45:41;;;;;;;3.90;2.33;;;12.50;99.90;;;;;;5001762;28;20465;-74
2024/02/26 10:48:11;;;;;;;2.10;1.90;;;12.40;99.90;;;;;;4998511;28;20835;-74
2024/02/26 10:50:38;;;;;;;2.33;1.70;;;12.30;99.90;;;;;;4991921;28;20600;-74
2024/02/26 10:53:14;;;;;;;2.20;2.00;;;12.20;99.90;;;;;;5002707;28;20469;-74
2024/02/26 10:55:42;;;;;;;2.33;2.07;;;12.20;99.90;;;;;;4995641;28;20210;-74
2024/02/26 10:58:11;;;;;;;3.03;2.33;;;12.50;99.90;;;;;;5002325;28;20542;-74
2024/02/26 11:00:40;;;;;;;2.60;2.07;;;12.90;99.90;;;;;;5002320;28;20217;-74
2024/02/26 11:03:09;;;;;;;3.47;2.13;;;13.30;99.90;;;;;;5003038;28;20831;-74
2024/02/26 11:05:36;;;;;;;2.33;2.13;;;13.70;99.90;;;;;;4995051;28;20453;-74
2024/02/26 11:08:05;;;;;;;3.90;2.00;;;14.00;99.90;;;;;;4998859;28;20474;-74
2024/02/26 11:10:32;;;;;;;2.57;2.10;;;14.00;99.50;;;;;;5005922;28;20461;-74
2024/02/26 11:13:02;;;;;;;2.20;2.00;;;14.20;99.90;;;;;;4996918;28;20472;-74
2024/02/26 11:15:32;;;;;;;2.20;1.80;;;14.70;99.80;;;;;;5005067;28;20490;-74
2024/02/26 11:18:00;;;;;;;2.33;2.00;;;15.10;99.10;;;;;;4999436;28;20891;-74
2024/02/26 11:20:30;;;;;;;2.33;1.77;;;15.60;99.20;;;;;;5005250;28;20840;-74
2024/02/26 11:22:56;;;;;;;2.13;1.93;;;15.80;99.50;;;;;;5003948;28;20491;-74
2024/02/26 11:25:23;;;;;;;1.93;1.73;;;15.80;98.90;;;;;;5005147;28;20463;-74
2024/02/26 11:27:54;;;;;;;2.63;1.87;;;15.50;98.50;;;;;;4999917;28;20457;-74
2024/02/26 11:30:23;;;;;;;2.70;1.47;;;15.30;99.00;;;;;;5002796;28;20465;-75
2024/02/26 11:32:52;;;;;;;2.17;1.87;;;15.20;98.80;;;;;;5005230;28;21171;-76
2024/02/26 11:35:19;;;;;;;1.57;1.47;;;15.10;99.40;;;;;;5004636;28;20494;-76
2024/02/26 11:37:54;;;;;;;5.60;1.70;;;14.80;99.00;;;;;;5005552;28;20469;-75
2024/02/26 11:40:21;;;;;;;1.63;1.47;;;14.70;99.70;;;;;;5004594;28;20465;-75
2024/02/26 11:42:50;;;;;;;2.07;1.60;;;14.50;99.90;;;;;;4998255;28;20461;-74
2024/02/26 11:45:52;;;;;;;1.60;1.50;;;14.20;99.50;;;;;;5002204;28;20482;-75
2024/02/26 11:48:23;;;;;;;1.90;1.50;;;14.00;99.90;;;;;;5002252;28;20461;-75
2024/02/26 11:50:51;;;;;;;1.60;1.30;;;13.80;99.50;;;;;;4998728;28;20461;-75
2024/02/26 11:53:23;;;;;;;2.00;1.80;;;13.90;99.90;;;;;;5001150;28;20482;-75
2024/02/26 11:56:12;;;;;;;2.27;1.53;;;14.00;99.80;;;;;;5004620;28;20485;-74
2024/02/26 11:58:40;;;;;;;1.67;1.50;;;14.10;99.90;;;;;;4992638;28;20951;-75
2024/02/26 12:01:07;;;;;;;1.60;1.50;;;14.10;99.60;;;;;;4997155;28;20830;-75
2024/02/26 12:03:36;;;;;;;1.60;1.30;;;14.10;98.90;;;;;;4996615;28;20478;-75
2024/02/26 12:06:03;;;;;;;1.93;1.57;;;14.10;99.00;;;;;;4997749;28;20488;-75
2024/02/26 12:08:30;;;;;;;2.63;1.60;;;14.10;98.90;;;;;;5006945;28;20454;-75
2024/02/26 12:10:57;;;;;;;2.13;1.37;;;14.00;98.10;;;;;;5002093;28;20458;-75
2024/02/26 12:13:30;;;;;;;1.67;1.57;;;13.70;99.10;;;;;;4998851;28;20575;-74
2024/02/26 12:15:59;;;;;;;1.60;1.50;;;13.60;99.30;;;;;;5001942;28;20491;-74
2024/02/26 12:18:25;;;;;;;2.33;1.50;;;13.50;99.10;;;;;;5005256;28;20520;-74
2024/02/26 12:21:01;;;;;;;2.20;1.17;;;13.30;99.30;;;;;;5002592;28;20476;-74
2024/02/26 12:23:28;;;;;;;1.63;1.30;;;13.20;99.80;;;;;;5003333;28;20489;-74
2024/02/26 12:25:59;;;;;;;1.73;1.50;;;13.10;99.60;;;;;;5005226;28;20500;-75
2024/02/26 12:28:28;;;;;;;1.97;1.77;;;13.10;99.80;;;;;;5002543;28;20942;-75
2024/02/26 12:30:55;;;;;;;1.40;1.30;;;13.00;99.10;;;;;;5002756;28;20552;-75
2024/02/26 12:33:22;;;;;;;2.10;1.33;;;12.80;98.80;;;;;;5002544;28;20483;-76
2024/02/26 12:35:50;;;;;;;1.10;1.00;;;12.90;99.60;;;;;;5006348;28;20487;-75
2024/02/26 12:38:18;;;;;;;2.10;1.57;;;13.30;99.90;;;;;;4989288;28;20474;-75
2024/02/26 12:40:46;;;;;;;2.03;1.50;;;14.10;99.70;;;;;;4987322;28;20462;-75
2024/02/26 12:43:13;;;;;;;1.60;1.50;;;15.20;99.70;;;;;;4996567;28;20538;-75
2024/02/26 12:45:41;;;;;;;1.70;1.30;;;16.40;98.10;;;;;;5006772;28;20458;-75
2024/02/26 12:48:08;;;;;;;1.93;1.20;;;17.60;97.10;;;;;;4995016;28;20465;-75
2024/02/26 12:50:35;;;;;;;1.20;1.10;;;18.20;95.00;;;;;;4996296;28;20508;-75
2024/02/26 12:53:02;;;;;;;1.50;1.40;;;18.40;95.30;;;;;;5000139;28;20886;-75
2024/02/26 12:55:33;;;;;;;1.40;1.20;;;18.10;94.90;;;;;;5005088;28;20548;-75
2024/02/26 12:58:01;;;;;;;2.60;1.90;;;17.60;95.40;;;;;;5004801;28;20462;-74